Aérodrome :
LOGIN :

S'inscrire | Disclaimer

   EN    FR    IT 

 










Légende :    VFR   VFR Marginal   IFR   IFR Intensif   IFR Très Intensif
Visi : 
Plafond : 
>= 8 km
>= 3000ft
5 à 8 km
1000 à 3000 ft
1500m à 5 km
500 à 1000 ft
800 à 1500m
200 à 500 ft
< 800m
< 200 ft
Symboles :   Orages  Brouillard  Fortes neiges  Fortes précipitations  Vent > 20 kt
SIGMETs :   Divers  Orages  Givrage  Turbulence  Onde Orograph.  Cendres Volcan.






- Altitude de l'aérodrome : 465 ft
- Code IATA : LEJ


EDDP - Leipzig Halle

DERNIER METAR :
  • 290620Z 31011KT CAVOK 04/01 Q1019 NOSIG

METARs EXPIRÉS :
  • 290550Z 31011KT CAVOK 04/01 Q1019 NOSIG
  • 290520Z 32009KT CAVOK 04/01 Q1019 NOSIG
  • 290450Z 31010KT CAVOK 04/01 Q1019 NOSIG
  • 290420Z 31009KT CAVOK 03/01 Q1019 NOSIG
  • 290350Z 30009KT CAVOK 03/01 Q1019 NOSIG

TAF TAF EDDP
Valide du 29 à 06h jusqu'au 30 à 06h UTC


290500Z 2906/3006 31010KT 9999 SCT035
BECMG 2909/2911 BKN012
TEMPO 2911/2917 3000 -RASN BKN008
BECMG 2911/2913 36015G25KT
BECMG 2915/2917 36012KT
BECMG 2918/2920 35007KT NSC



MET'MAP, la Météo Aéronautique d'un coup d'oeil ! - Copyright ORBIFLY Décembre 2007 - Disclaimer

ORBIFLY MET'MAP TEAM :

Programmation & Développement : Alexandra Zaïnal
Sur une idée originale de : Baudouin d'Aumeries
Assistance à la programmation : Marc-Olivier Méhu
Soutien technique & logistique : Manuel Goepfert

Contact : metmap@orbifly.com




SOURCES & CREDITS :

   NOAA